Jaime Gonzalez Airport
MUCF : now visible

Airfield :











YOU CAN JOIN US ON...

 
LOGIN :

Register | Disclaimer

   EN    FR    IT 

 









Legend :    VFR   Marginal VFR   IFR   Intensive IFR   Very Intensive IFR
Visi :
Ceiling :
>= 8 km
>= 3000ft
5 to 8 km
1000 to 3000 ft
1500m to 5 km
500 to 1000 ft
800 to 1500m
200 to 500 ft
< 800m
< 200 ft
Symbols :   Thunderstorms  Fog  Heavy snow  Heavy precipitations  Wind > 20 kt







- Airport Elevation : 102 ft
- IATA code : CFG


MUCF - Jaime Gonzalez

CURRENT METAR :
  • 202059Z AUTO /////KT 26/23 Q1012

EXPIRED METARs :
  • 201952Z VRB02KT 3000 RA BKN018 26/23 Q1013
  • 201853Z VRB02KT 7000 VCSH BKN018 25/24 Q1013

TAF MUCF
Valid from the 20 at 18:00 until the 21 at 06:00 UTC


201700Z 2018/2106 VRB03KT 9000 SCT020 BKN060
TEMPO 2018/2024 5000 SHRA FEW015CB BKN020
MUFH FIR / North America



MET'MAP, your aeronautical weather chart ! - Copyright ORBIFLY December 2007 - Disclaimer

ORBIFLY MET'MAP TEAM :

Programming & Development : Alexandra Zaïnal
Concept & Development : Baudouin d'Aumeries
Co-Development & Prog : Marc-Olivier Méhu
Technical & hardware support : Manuel Goepfert

Contact : metmap@orbifly.com




SOURCES & CREDITS :

   NOAA       Earth
Advisory